sensor_id;sensor_type;location;lat;lon;timestamp;pressure;altitude;pressure_sealevel;temperature;humidity
11678;BME280;5895;41.950;24.372;2023-01-16T00:02:22;86533.63;;;-0.35;84.93
11678;BME280;5895;41.950;24.372;2023-01-16T00:04:49;86523.78;;;-0.38;84.21
11678;BME280;5895;41.950;24.372;2023-01-16T00:07:16;86524.41;;;-0.36;84.43
11678;BME280;5895;41.950;24.372;2023-01-16T00:09:43;86526.94;;;-0.36;84.62
11678;BME280;5895;41.950;24.372;2023-01-16T00:12:11;86517.63;;;-0.29;86.47
11678;BME280;5895;41.950;24.372;2023-01-16T00:14:39;86513.78;;;-0.25;87.43
11678;BME280;5895;41.950;24.372;2023-01-16T00:17:06;86509.56;;;-0.18;86.74
11678;BME280;5895;41.950;24.372;2023-01-16T00:19:34;86513.72;;;-0.17;86.29
11678;BME280;5895;41.950;24.372;2023-01-16T00:22:02;86511.75;;;-0.30;82.70
11678;BME280;5895;41.950;24.372;2023-01-16T00:24:29;86523.94;;;-0.40;83.84
11678;BME280;5895;41.950;24.372;2023-01-16T00:26:56;86527.81;;;-0.44;84.20
11678;BME280;5895;41.950;24.372;2023-01-16T00:29:25;86523.50;;;-0.43;84.32
11678;BME280;5895;41.950;24.372;2023-01-16T00:31:52;86519.38;;;-0.44;84.28
11678;BME280;5895;41.950;24.372;2023-01-16T00:34:19;86525.19;;;-0.50;83.88
11678;BME280;5895;41.950;24.372;2023-01-16T00:36:46;86519.63;;;-0.54;83.48
11678;BME280;5895;41.950;24.372;2023-01-16T00:39:13;86520.91;;;-0.58;83.96
11678;BME280;5895;41.950;24.372;2023-01-16T00:41:40;86518.19;;;-0.57;83.43
11678;BME280;5895;41.950;24.372;2023-01-16T00:44:07;86519.00;;;-0.56;84.44
11678;BME280;5895;41.950;24.372;2023-01-16T00:46:36;86510.53;;;-0.57;83.51
11678;BME280;5895;41.950;24.372;2023-01-16T00:49:03;86515.38;;;-0.62;83.94
11678;BME280;5895;41.950;24.372;2023-01-16T00:51:30;86509.47;;;-0.62;84.45
11678;BME280;5895;41.950;24.372;2023-01-16T00:53:57;86507.75;;;-0.62;84.27
11678;BME280;5895;41.950;24.372;2023-01-16T00:56:24;86509.31;;;-0.61;84.55
11678;BME280;5895;41.950;24.372;2023-01-16T00:58:51;86521.59;;;-0.64;84.49
11678;BME280;5895;41.950;24.372;2023-01-16T01:01:18;86508.88;;;-0.64;84.18
11678;BME280;5895;41.950;24.372;2023-01-16T01:03:47;86507.75;;;-0.62;84.47
11678;BME280;5895;41.950;24.372;2023-01-16T01:06:14;86498.56;;;-0.71;83.05
11678;BME280;5895;41.950;24.372;2023-01-16T01:08:41;86504.00;;;-0.74;83.59
11678;BME280;5895;41.950;24.372;2023-01-16T01:11:09;86497.31;;;-0.75;83.72
11678;BME280;5895;41.950;24.372;2023-01-16T01:13:37;86505.47;;;-0.80;82.73
11678;BME280;5895;41.950;24.372;2023-01-16T01:16:05;86499.16;;;-0.84;84.07
11678;BME280;5895;41.950;24.372;2023-01-16T01:18:33;86491.34;;;-0.82;83.66
11678;BME280;5895;41.950;24.372;2023-01-16T01:21:01;86492.91;;;-0.81;83.55
11678;BME280;5895;41.950;24.372;2023-01-16T01:23:28;86488.78;;;-0.82;83.73
11678;BME280;5895;41.950;24.372;2023-01-16T01:25:56;86494.56;;;-0.88;83.74
11678;BME280;5895;41.950;24.372;2023-01-16T01:28:23;86486.16;;;-0.89;83.86
11678;BME280;5895;41.950;24.372;2023-01-16T01:30:50;86490.44;;;-0.89;83.96
11678;BME280;5895;41.950;24.372;2023-01-16T01:33:17;86494.63;;;-0.96;83.42
11678;BME280;5895;41.950;24.372;2023-01-16T01:35:44;86488.72;;;-0.97;83.97
11678;BME280;5895;41.950;24.372;2023-01-16T01:38:12;86485.41;;;-0.97;83.51
11678;BME280;5895;41.950;24.372;2023-01-16T01:40:39;86487.94;;;-0.97;84.12
11678;BME280;5895;41.950;24.372;2023-01-16T01:43:11;86483.63;;;-0.97;83.25
11678;BME280;5895;41.950;24.372;2023-01-16T01:45:39;86477.75;;;-0.97;84.04
11678;BME280;5895;41.950;24.372;2023-01-16T01:48:19;86476.78;;;-0.96;84.47
11678;BME280;5895;41.950;24.372;2023-01-16T01:50:53;86468.03;;;-0.94;83.69
11678;BME280;5895;41.950;24.372;2023-01-16T01:53:25;86469.78;;;-0.94;83.30
11678;BME280;5895;41.950;24.372;2023-01-16T01:55:53;86466.31;;;-1.01;83.13
11678;BME280;5895;41.950;24.372;2023-01-16T01:58:22;86460.81;;;-1.05;82.75
11678;BME280;5895;41.950;24.372;2023-01-16T02:00:53;86459.22;;;-1.06;83.62
11678;BME280;5895;41.950;24.372;2023-01-16T02:03:22;86456.81;;;-1.08;82.77
11678;BME280;5895;41.950;24.372;2023-01-16T02:05:53;86463.84;;;-1.10;82.95
11678;BME280;5895;41.950;24.372;2023-01-16T02:08:26;86462.72;;;-1.07;83.04
11678;BME280;5895;41.950;24.372;2023-01-16T02:10:58;86462.28;;;-1.11;82.78
11678;BME280;5895;41.950;24.372;2023-01-16T02:13:27;86460.22;;;-1.15;82.60
11678;BME280;5895;41.950;24.372;2023-01-16T02:15:55;86462.31;;;-1.19;81.67
11678;BME280;5895;41.950;24.372;2023-01-16T02:18:39;86460.91;;;-1.21;82.54
11678;BME280;5895;41.950;24.372;2023-01-16T02:21:44;86462.38;;;-1.27;81.71
11678;BME280;5895;41.950;24.372;2023-01-16T02:24:35;86467.78;;;-1.30;82.41
11678;BME280;5895;41.950;24.372;2023-01-16T02:27:25;86475.13;;;-1.35;81.59
11678;BME280;5895;41.950;24.372;2023-01-16T02:30:16;86465.31;;;-1.38;83.14
11678;BME280;5895;41.950;24.372;2023-01-16T02:32:56;86464.97;;;-1.35;82.80
11678;BME280;5895;41.950;24.372;2023-01-16T02:35:47;86464.63;;;-1.32;83.97
11678;BME280;5895;41.950;24.372;2023-01-16T02:38:20;86460.69;;;-1.35;84.02
11678;BME280;5895;41.950;24.372;2023-01-16T02:40:56;86457.28;;;-1.27;83.94
11678;BME280;5895;41.950;24.372;2023-01-16T02:43:32;86462.03;;;-1.24;83.93
11678;BME280;5895;41.950;24.372;2023-01-16T02:46:08;86451.84;;;-1.24;83.47
11678;BME280;5895;41.950;24.372;2023-01-16T02:48:44;86452.50;;;-1.22;84.33
11678;BME280;5895;41.950;24.372;2023-01-16T02:51:23;86453.09;;;-1.20;84.26
11678;BME280;5895;41.950;24.372;2023-01-16T02:53:59;86443.88;;;-1.21;83.50
11678;BME280;5895;41.950;24.372;2023-01-16T02:56:33;86446.16;;;-1.26;82.46
11678;BME280;5895;41.950;24.372;2023-01-16T02:59:08;86438.06;;;-1.29;81.76
11678;BME280;5895;41.950;24.372;2023-01-16T03:01:36;86438.41;;;-1.33;81.96
11678;BME280;5895;41.950;24.372;2023-01-16T03:04:42;86444.78;;;-1.37;81.91
11678;BME280;5895;41.950;24.372;2023-01-16T03:07:28;86444.84;;;-1.45;82.31
11678;BME280;5895;41.950;24.372;2023-01-16T03:10:10;86440.59;;;-1.52;81.45
11678;BME280;5895;41.950;24.372;2023-01-16T03:12:51;86435.38;;;-1.59;81.57
11678;BME280;5895;41.950;24.372;2023-01-16T03:15:27;86422.06;;;-1.61;82.21
11678;BME280;5895;41.950;24.372;2023-01-16T03:18:07;86435.88;;;-1.64;82.39
11678;BME280;5895;41.950;24.372;2023-01-16T03:20:48;86423.03;;;-1.62;82.55
11678;BME280;5895;41.950;24.372;2023-01-16T03:23:23;86426.19;;;-1.60;83.23
11678;BME280;5895;41.950;24.372;2023-01-16T03:26:00;86428.53;;;-1.58;83.10
11678;BME280;5895;41.950;24.372;2023-01-16T03:28:35;86433.63;;;-1.58;83.84
11678;BME280;5895;41.950;24.372;2023-01-16T03:31:08;86425.03;;;-1.57;83.56
11678;BME280;5895;41.950;24.372;2023-01-16T03:33:43;86418.03;;;-1.55;83.48
11678;BME280;5895;41.950;24.372;2023-01-16T03:36:16;86400.75;;;-1.60;81.11
11678;BME280;5895;41.950;24.372;2023-01-16T03:38:49;86397.91;;;-1.65;81.93
11678;BME280;5895;41.950;24.372;2023-01-16T03:41:21;86401.41;;;-1.66;82.44
11678;BME280;5895;41.950;24.372;2023-01-16T03:43:54;86409.22;;;-1.68;82.69
11678;BME280;5895;41.950;24.372;2023-01-16T03:46:26;86411.91;;;-1.69;82.32
11678;BME280;5895;41.950;24.372;2023-01-16T03:48:58;86418.13;;;-1.72;82.42
11678;BME280;5895;41.950;24.372;2023-01-16T03:51:32;86413.38;;;-1.75;82.60
11678;BME280;5895;41.950;24.372;2023-01-16T03:54:03;86414.53;;;-1.77;81.53
11678;BME280;5895;41.950;24.372;2023-01-16T03:56:36;86408.97;;;-1.81;82.18
11678;BME280;5895;41.950;24.372;2023-01-16T03:59:07;86411.50;;;-1.81;82.42
11678;BME280;5895;41.950;24.372;2023-01-16T04:01:38;86409.31;;;-1.84;82.04
11678;BME280;5895;41.950;24.372;2023-01-16T04:04:08;86404.66;;;-1.80;82.62
11678;BME280;5895;41.950;24.372;2023-01-16T04:06:44;86404.53;;;-1.79;82.58
11678;BME280;5895;41.950;24.372;2023-01-16T04:09:18;86398.47;;;-1.78;83.40
11678;BME280;5895;41.950;24.372;2023-01-16T04:11:49;86391.47;;;-1.76;82.78
11678;BME280;5895;41.950;24.372;2023-01-16T04:14:18;86395.75;;;-1.76;83.15
11678;BME280;5895;41.950;24.372;2023-01-16T04:16:47;86380.50;;;-1.76;82.18
11678;BME280;5895;41.950;24.372;2023-01-16T04:19:15;86391.94;;;-1.72;82.30
11678;BME280;5895;41.950;24.372;2023-01-16T04:21:46;86381.28;;;-1.76;82.76
11678;BME280;5895;41.950;24.372;2023-01-16T04:24:14;86384.47;;;-1.74;82.65
11678;BME280;5895;41.950;24.372;2023-01-16T04:26:42;86375.88;;;-1.73;83.20
11678;BME280;5895;41.950;24.372;2023-01-16T04:29:09;86385.69;;;-1.70;83.15
11678;BME280;5895;41.950;24.372;2023-01-16T04:31:36;86380.19;;;-1.73;82.46
11678;BME280;5895;41.950;24.372;2023-01-16T04:34:03;86382.88;;;-1.75;83.00
11678;BME280;5895;41.950;24.372;2023-01-16T04:36:30;86378.47;;;-1.81;82.14
11678;BME280;5895;41.950;24.372;2023-01-16T04:38:59;86379.59;;;-1.83;82.63
11678;BME280;5895;41.950;24.372;2023-01-16T04:41:26;86384.03;;;-1.86;82.25
11678;BME280;5895;41.950;24.372;2023-01-16T04:44:03;86389.66;;;-1.90;81.42
11678;BME280;5895;41.950;24.372;2023-01-16T04:46:31;86379.34;;;-1.97;81.06
11678;BME280;5895;41.950;24.372;2023-01-16T04:48:58;86385.88;;;-2.02;80.97
11678;BME280;5895;41.950;24.372;2023-01-16T04:51:25;86378.09;;;-2.01;81.55
11678;BME280;5895;41.950;24.372;2023-01-16T04:53:54;86377.31;;;-2.01;81.77
11678;BME280;5895;41.950;24.372;2023-01-16T04:56:23;86378.91;;;-2.00;82.24
11678;BME280;5895;41.950;24.372;2023-01-16T04:58:50;86385.56;;;-1.99;82.48
11678;BME280;5895;41.950;24.372;2023-01-16T05:01:19;86386.34;;;-1.99;83.13
11678;BME280;5895;41.950;24.372;2023-01-16T05:03:46;86385.25;;;-1.96;83.76
11678;BME280;5895;41.950;24.372;2023-01-16T05:06:13;86378.22;;;-1.94;82.99
11678;BME280;5895;41.950;24.372;2023-01-16T05:08:40;86381.72;;;-1.95;83.11
11678;BME280;5895;41.950;24.372;2023-01-16T05:11:07;86379.19;;;-1.95;82.84
11678;BME280;5895;41.950;24.372;2023-01-16T05:13:36;86380.16;;;-1.96;83.16
11678;BME280;5895;41.950;24.372;2023-01-16T05:16:03;86383.31;;;-1.94;83.76
11678;BME280;5895;41.950;24.372;2023-01-16T05:18:31;86376.16;;;-1.91;85.36
11678;BME280;5895;41.950;24.372;2023-01-16T05:20:59;86374.94;;;-1.80;87.34
11678;BME280;5895;41.950;24.372;2023-01-16T05:23:26;86374.91;;;-1.72;88.87
11678;BME280;5895;41.950;24.372;2023-01-16T05:25:53;86358.00;;;-1.65;89.18
11678;BME280;5895;41.950;24.372;2023-01-16T05:28:20;86360.50;;;-1.56;89.65
11678;BME280;5895;41.950;24.372;2023-01-16T05:30:49;86357.00;;;-1.55;88.86
11678;BME280;5895;41.950;24.372;2023-01-16T05:33:16;86361.41;;;-1.49;90.03
11678;BME280;5895;41.950;24.372;2023-01-16T05:35:44;86354.66;;;-1.42;89.02
11678;BME280;5895;41.950;24.372;2023-01-16T05:38:11;86346.69;;;-1.39;89.11
11678;BME280;5895;41.950;24.372;2023-01-16T05:40:39;86353.66;;;-1.33;88.83
11678;BME280;5895;41.950;24.372;2023-01-16T05:43:06;86351.53;;;-1.29;89.47
11678;BME280;5895;41.950;24.372;2023-01-16T05:45:33;86351.19;;;-1.26;89.89
11678;BME280;5895;41.950;24.372;2023-01-16T05:48:02;86353.25;;;-1.22;89.09
11678;BME280;5895;41.950;24.372;2023-01-16T05:50:29;86349.41;;;-1.18;88.76
11678;BME280;5895;41.950;24.372;2023-01-16T05:52:56;86344.72;;;-1.14;89.15
11678;BME280;5895;41.950;24.372;2023-01-16T05:55:24;86348.69;;;-1.12;88.41
11678;BME280;5895;41.950;24.372;2023-01-16T05:57:51;86349.31;;;-1.10;88.39
11678;BME280;5895;41.950;24.372;2023-01-16T06:00:19;86344.22;;;-1.10;88.80
11678;BME280;5895;41.950;24.372;2023-01-16T06:02:46;86338.94;;;-1.08;88.66
11678;BME280;5895;41.950;24.372;2023-01-16T06:05:14;86337.81;;;-1.05;88.61
11678;BME280;5895;41.950;24.372;2023-01-16T06:07:41;86336.84;;;-1.04;88.09
11678;BME280;5895;41.950;24.372;2023-01-16T06:10:09;86338.09;;;-1.00;88.33
11678;BME280;5895;41.950;24.372;2023-01-16T06:12:37;86330.47;;;-1.00;90.03
11678;BME280;5895;41.950;24.372;2023-01-16T06:15:05;86327.91;;;-1.00;89.60
11678;BME280;5895;41.950;24.372;2023-01-16T06:17:33;86332.63;;;-0.97;89.11
11678;BME280;5895;41.950;24.372;2023-01-16T06:20:00;86336.75;;;-0.96;89.76
11678;BME280;5895;41.950;24.372;2023-01-16T06:22:28;86334.84;;;-0.94;89.11
11678;BME280;5895;41.950;24.372;2023-01-16T06:24:55;86334.50;;;-0.91;90.04
11678;BME280;5895;41.950;24.372;2023-01-16T06:27:23;86331.78;;;-0.90;88.80
11678;BME280;5895;41.950;24.372;2023-01-16T06:29:50;86333.78;;;-0.85;88.49
11678;BME280;5895;41.950;24.372;2023-01-16T06:32:17;86329.47;;;-0.85;89.00
11678;BME280;5895;41.950;24.372;2023-01-16T06:34:44;86338.53;;;-0.82;89.18
11678;BME280;5895;41.950;24.372;2023-01-16T06:37:11;86339.16;;;-0.80;88.52
11678;BME280;5895;41.950;24.372;2023-01-16T06:39:40;86321.59;;;-0.75;88.52
11678;BME280;5895;41.950;24.372;2023-01-16T06:42:07;86324.78;;;-0.73;88.62
11678;BME280;5895;41.950;24.372;2023-01-16T06:44:35;86325.38;;;-0.71;88.94
11678;BME280;5895;41.950;24.372;2023-01-16T06:47:02;86327.31;;;-0.73;89.03
11678;BME280;5895;41.950;24.372;2023-01-16T06:49:29;86326.94;;;-0.70;88.54
11678;BME280;5895;41.950;24.372;2023-01-16T06:51:56;86315.19;;;-0.71;89.83
11678;BME280;5895;41.950;24.372;2023-01-16T06:54:25;86328.25;;;-0.74;89.00
11678;BME280;5895;41.950;24.372;2023-01-16T06:56:53;86315.19;;;-0.71;89.59
11678;BME280;5895;41.950;24.372;2023-01-16T06:59:20;86307.72;;;-0.72;90.32
11678;BME280;5895;41.950;24.372;2023-01-16T07:01:47;86309.13;;;-0.70;90.51
11678;BME280;5895;41.950;24.372;2023-01-16T07:04:15;86307.81;;;-0.66;89.62
11678;BME280;5895;41.950;24.372;2023-01-16T07:06:42;86303.59;;;-0.59;89.47
11678;BME280;5895;41.950;24.372;2023-01-16T07:09:09;86301.91;;;-0.51;90.99
11678;BME280;5895;41.950;24.372;2023-01-16T07:11:36;86291.63;;;-0.43;90.73
11678;BME280;5895;41.950;24.372;2023-01-16T07:14:04;86287.66;;;-0.31;90.26
11678;BME280;5895;41.950;24.372;2023-01-16T07:16:49;86280.13;;;-0.18;89.16
11678;BME280;5895;41.950;24.372;2023-01-16T07:19:33;86278.72;;;-0.06;89.17
11678;BME280;5895;41.950;24.372;2023-01-16T07:22:18;86278.41;;;0.04;89.56
11678;BME280;5895;41.950;24.372;2023-01-16T07:25:06;86274.59;;;0.15;89.74
11678;BME280;5895;41.950;24.372;2023-01-16T07:27:35;86270.34;;;0.22;88.71
11678;BME280;5895;41.950;24.372;2023-01-16T07:30:05;86272.78;;;0.30;88.99
11678;BME280;5895;41.950;24.372;2023-01-16T07:32:32;86262.19;;;0.33;89.14
11678;BME280;5895;41.950;24.372;2023-01-16T07:34:59;86260.50;;;0.40;88.72
11678;BME280;5895;41.950;24.372;2023-01-16T07:37:26;86251.25;;;0.39;89.03
11678;BME280;5895;41.950;24.372;2023-01-16T07:39:53;86250.84;;;0.36;88.75
11678;BME280;5895;41.950;24.372;2023-01-16T07:42:20;86256.78;;;0.43;89.15
11678;BME280;5895;41.950;24.372;2023-01-16T07:44:47;86251.63;;;0.36;88.39
11678;BME280;5895;41.950;24.372;2023-01-16T07:47:16;86255.06;;;0.50;88.27
11678;BME280;5895;41.950;24.372;2023-01-16T07:49:43;86266.44;;;0.69;88.70
11678;BME280;5895;41.950;24.372;2023-01-16T07:52:10;86262.31;;;0.68;87.48
11678;BME280;5895;41.950;24.372;2023-01-16T07:54:37;86265.50;;;0.76;87.01
11678;BME280;5895;41.950;24.372;2023-01-16T07:57:05;86272.56;;;0.74;87.67
11678;BME280;5895;41.950;24.372;2023-01-16T07:59:32;86281.41;;;0.78;87.34
11678;BME280;5895;41.950;24.372;2023-01-16T08:01:59;86280.84;;;0.83;87.48
11678;BME280;5895;41.950;24.372;2023-01-16T08:04:30;86291.03;;;1.04;87.16
11678;BME280;5895;41.950;24.372;2023-01-16T08:06:57;86275.13;;;1.37;86.25
11678;BME280;5895;41.950;24.372;2023-01-16T08:09:24;86271.28;;;1.54;85.22
11678;BME280;5895;41.950;24.372;2023-01-16T08:11:51;86269.47;;;1.42;85.29
11678;BME280;5895;41.950;24.372;2023-01-16T08:14:18;86268.72;;;1.54;84.58
11678;BME280;5895;41.950;24.372;2023-01-16T08:16:45;86264.28;;;1.70;84.67
11678;BME280;5895;41.950;24.372;2023-01-16T08:19:12;86268.94;;;1.59;84.56
11678;BME280;5895;41.950;24.372;2023-01-16T08:21:41;86265.31;;;1.89;84.54
11678;BME280;5895;41.950;24.372;2023-01-16T08:24:08;86274.59;;;1.96;83.45
11678;BME280;5895;41.950;24.372;2023-01-16T08:26:38;86285.44;;;1.98;82.81
11678;BME280;5895;41.950;24.372;2023-01-16T08:29:05;86273.81;;;1.96;83.86
11678;BME280;5895;41.950;24.372;2023-01-16T08:31:32;86260.44;;;1.94;83.84
11678;BME280;5895;41.950;24.372;2023-01-16T08:33:59;86259.47;;;2.01;84.12
11678;BME280;5895;41.950;24.372;2023-01-16T08:36:26;86245.31;;;2.05;83.59
11678;BME280;5895;41.950;24.372;2023-01-16T08:38:55;86238.25;;;2.14;84.17
11678;BME280;5895;41.950;24.372;2023-01-16T08:41:22;86250.22;;;2.07;84.31
11678;BME280;5895;41.950;24.372;2023-01-16T08:44:07;86250.22;;;2.00;84.26
11678;BME280;5895;41.950;24.372;2023-01-16T08:46:56;86262.84;;;2.08;85.14
11678;BME280;5895;41.950;24.372;2023-01-16T08:49:43;86260.47;;;2.07;85.33
11678;BME280;5895;41.950;24.372;2023-01-16T08:52:42;86239.81;;;2.08;84.99
11678;BME280;5895;41.950;24.372;2023-01-16T08:55:11;86235.31;;;2.17;85.56
11678;BME280;5895;41.950;24.372;2023-01-16T08:57:38;86224.28;;;2.23;84.56
11678;BME280;5895;41.950;24.372;2023-01-16T09:00:07;86220.38;;;2.34;84.65
11678;BME280;5895;41.950;24.372;2023-01-16T09:02:35;86221.56;;;2.38;83.66
11678;BME280;5895;41.950;24.372;2023-01-16T09:05:04;86226.28;;;2.41;83.84
11678;BME280;5895;41.950;24.372;2023-01-16T09:07:31;86227.88;;;2.42;84.46
11678;BME280;5895;41.950;24.372;2023-01-16T09:09:58;86214.88;;;2.37;84.43
11678;BME280;5895;41.950;24.372;2023-01-16T09:12:27;86219.41;;;2.42;83.63
11678;BME280;5895;41.950;24.372;2023-01-16T09:15:11;86215.44;;;2.39;83.77
11678;BME280;5895;41.950;24.372;2023-01-16T09:17:38;86205.03;;;2.47;83.69
11678;BME280;5895;41.950;24.372;2023-01-16T09:20:07;86209.75;;;2.50;84.01
11678;BME280;5895;41.950;24.372;2023-01-16T09:22:34;86203.06;;;2.56;84.03
11678;BME280;5895;41.950;24.372;2023-01-16T09:25:03;86188.88;;;2.53;83.32
11678;BME280;5895;41.950;24.372;2023-01-16T09:27:31;86186.13;;;2.61;83.55
11678;BME280;5895;41.950;24.372;2023-01-16T09:29:59;86188.88;;;2.67;84.18
11678;BME280;5895;41.950;24.372;2023-01-16T09:32:26;86182.56;;;2.76;82.98
11678;BME280;5895;41.950;24.372;2023-01-16T09:34:53;86184.53;;;2.80;83.54
11678;BME280;5895;41.950;24.372;2023-01-16T09:37:20;86175.06;;;2.87;82.68
11678;BME280;5895;41.950;24.372;2023-01-16T09:39:47;86169.34;;;2.92;82.09
11678;BME280;5895;41.950;24.372;2023-01-16T09:42:26;86167.94;;;2.96;81.99
11678;BME280;5895;41.950;24.372;2023-01-16T09:45:16;86176.06;;;2.93;82.33
11678;BME280;5895;41.950;24.372;2023-01-16T09:47:49;86161.63;;;3.05;82.60
11678;BME280;5895;41.950;24.372;2023-01-16T09:50:22;86173.25;;;3.14;81.48
11678;BME280;5895;41.950;24.372;2023-01-16T09:52:51;86161.59;;;3.18;81.69
11678;BME280;5895;41.950;24.372;2023-01-16T09:55:40;86165.53;;;3.28;81.10
11678;BME280;5895;41.950;24.372;2023-01-16T09:58:26;86166.72;;;3.32;80.69
11678;BME280;5895;41.950;24.372;2023-01-16T10:01:08;86151.50;;;3.37;80.10
11678;BME280;5895;41.950;24.372;2023-01-16T10:03:35;86155.25;;;3.34;79.77
11678;BME280;5895;41.950;24.372;2023-01-16T10:06:14;86151.31;;;3.32;79.18
11678;BME280;5895;41.950;24.372;2023-01-16T10:11:40;86157.25;;;3.32;80.33
11678;BME280;5895;41.950;24.372;2023-01-16T10:14:31;86157.59;;;3.36;81.42
11678;BME280;5895;41.950;24.372;2023-01-16T10:17:12;86140.25;;;3.38;80.33
11678;BME280;5895;41.950;24.372;2023-01-16T10:19:51;86138.28;;;3.40;81.40
11678;BME280;5895;41.950;24.372;2023-01-16T10:22:33;86133.75;;;3.35;79.99
11678;BME280;5895;41.950;24.372;2023-01-16T10:25:13;86139.09;;;3.34;80.70
11678;BME280;5895;41.950;24.372;2023-01-16T10:27:49;86128.25;;;3.32;80.78
11678;BME280;5895;41.950;24.372;2023-01-16T10:30:20;86123.94;;;3.26;80.63
11678;BME280;5895;41.950;24.372;2023-01-16T10:32:57;86112.28;;;3.30;80.25
11678;BME280;5895;41.950;24.372;2023-01-16T10:35:31;86118.00;;;3.32;80.70
11678;BME280;5895;41.950;24.372;2023-01-16T10:38:20;86118.56;;;3.34;79.98
11678;BME280;5895;41.950;24.372;2023-01-16T10:40:51;86110.66;;;3.35;80.00
11678;BME280;5895;41.950;24.372;2023-01-16T10:43:29;86103.16;;;3.40;80.61
11678;BME280;5895;41.950;24.372;2023-01-16T10:46:19;86113.03;;;3.43;79.55
11678;BME280;5895;41.950;24.372;2023-01-16T10:49:09;86100.75;;;3.52;80.47
11678;BME280;5895;41.950;24.372;2023-01-16T10:51:57;86092.75;;;3.74;79.71
11678;BME280;5895;41.950;24.372;2023-01-16T10:54:25;86100.53;;;3.92;79.52
11678;BME280;5895;41.950;24.372;2023-01-16T10:56:52;86086.53;;;4.19;77.58
11678;BME280;5895;41.950;24.372;2023-01-16T10:59:23;86092.19;;;4.53;76.49
11678;BME280;5895;41.950;24.372;2023-01-16T11:01:53;86086.53;;;4.88;74.91
11678;BME280;5895;41.950;24.372;2023-01-16T11:04:33;86084.44;;;5.21;72.79
11678;BME280;5895;41.950;24.372;2023-01-16T11:07:13;86068.97;;;5.58;73.42
11678;BME280;5895;41.950;24.372;2023-01-16T11:09:42;86065.22;;;5.72;71.60
11678;BME280;5895;41.950;24.372;2023-01-16T11:12:13;86071.41;;;5.53;71.60
11678;BME280;5895;41.950;24.372;2023-01-16T11:15:00;86074.28;;;5.08;72.01
11678;BME280;5895;41.950;24.372;2023-01-16T11:17:52;86059.91;;;4.82;73.06
11678;BME280;5895;41.950;24.372;2023-01-16T11:20:40;86061.84;;;4.68;75.04
11678;BME280;5895;41.950;24.372;2023-01-16T11:23:16;86067.50;;;4.52;75.41
11678;BME280;5895;41.950;24.372;2023-01-16T11:25:45;86059.53;;;4.35;76.05
11678;BME280;5895;41.950;24.372;2023-01-16T11:28:18;86062.28;;;4.15;76.46
11678;BME280;5895;41.950;24.372;2023-01-16T11:30:47;86055.81;;;4.06;77.27
11678;BME280;5895;41.950;24.372;2023-01-16T11:33:17;86058.50;;;3.93;77.01
11678;BME280;5895;41.950;24.372;2023-01-16T11:35:51;86053.59;;;3.85;77.53
11678;BME280;5895;41.950;24.372;2023-01-16T11:38:21;86059.97;;;3.76;77.84
11678;BME280;5895;41.950;24.372;2023-01-16T11:40:49;86057.25;;;3.70;78.34
11678;BME280;5895;41.950;24.372;2023-01-16T11:43:22;86058.06;;;3.64;78.05
11678;BME280;5895;41.950;24.372;2023-01-16T11:46:18;86056.91;;;3.60;78.94
11678;BME280;5895;41.950;24.372;2023-01-16T11:48:52;86054.53;;;3.65;79.14
11678;BME280;5895;41.950;24.372;2023-01-16T11:51:24;86052.97;;;3.58;78.87
11678;BME280;5895;41.950;24.372;2023-01-16T11:53:54;86064.47;;;3.49;78.45
11678;BME280;5895;41.950;24.372;2023-01-16T11:56:40;86053.09;;;3.38;78.35
11678;BME280;5895;41.950;24.372;2023-01-16T12:02:50;86035.38;;;3.30;78.36
11678;BME280;5895;41.950;24.372;2023-01-16T12:05:25;86044.06;;;3.29;78.52
11678;BME280;5895;41.950;24.372;2023-01-16T12:08:30;86040.31;;;3.25;78.56
11678;BME280;5895;41.950;24.372;2023-01-16T12:11:05;86025.53;;;3.27;78.19
11678;BME280;5895;41.950;24.372;2023-01-16T12:13:38;86033.22;;;3.27;78.92
11678;BME280;5895;41.950;24.372;2023-01-16T12:16:41;86022.38;;;3.25;79.18
11678;BME280;5895;41.950;24.372;2023-01-16T12:19:30;86008.00;;;3.24;79.78
11678;BME280;5895;41.950;24.372;2023-01-16T12:22:06;86012.53;;;3.22;79.53
11678;BME280;5895;41.950;24.372;2023-01-16T12:24:41;86010.22;;;3.13;79.67
11678;BME280;5895;41.950;24.372;2023-01-16T12:27:20;86009.66;;;3.05;80.20
11678;BME280;5895;41.950;24.372;2023-01-16T12:30:00;86019.53;;;3.01;80.34
11678;BME280;5895;41.950;24.372;2023-01-16T12:32:41;86010.28;;;3.00;80.49
11678;BME280;5895;41.950;24.372;2023-01-16T12:35:22;86007.16;;;2.98;80.23
11678;BME280;5895;41.950;24.372;2023-01-16T12:38:01;86010.66;;;2.97;80.84
11678;BME280;5895;41.950;24.372;2023-01-16T12:43:51;86005.41;;;2.92;80.32
11678;BME280;5895;41.950;24.372;2023-01-16T12:46:23;86004.41;;;2.93;80.45
11678;BME280;5895;41.950;24.372;2023-01-16T12:49:05;86010.34;;;2.87;81.88
11678;BME280;5895;41.950;24.372;2023-01-16T12:51:52;86010.72;;;2.84;82.02
11678;BME280;5895;41.950;24.372;2023-01-16T12:54:43;86013.91;;;2.79;81.10
11678;BME280;5895;41.950;24.372;2023-01-16T12:57:42;86010.38;;;2.74;82.13
11678;BME280;5895;41.950;24.372;2023-01-16T13:00:15;86007.25;;;2.72;81.86
11678;BME280;5895;41.950;24.372;2023-01-16T13:02:50;86005.06;;;2.69;81.89
11678;BME280;5895;41.950;24.372;2023-01-16T13:05:22;86007.06;;;2.67;81.78
11678;BME280;5895;41.950;24.372;2023-01-16T13:07:53;86020.66;;;2.67;80.56
11678;BME280;5895;41.950;24.372;2023-01-16T13:10:24;86003.50;;;2.68;81.28
11678;BME280;5895;41.950;24.372;2023-01-16T13:13:17;86006.06;;;2.68;81.51
11678;BME280;5895;41.950;24.372;2023-01-16T13:15:54;86001.34;;;2.64;81.36
11678;BME280;5895;41.950;24.372;2023-01-16T13:18:26;85991.50;;;2.61;80.03
11678;BME280;5895;41.950;24.372;2023-01-16T13:20:56;85993.28;;;2.61;80.00
11678;BME280;5895;41.950;24.372;2023-01-16T13:23:26;85998.59;;;2.66;79.64
11678;BME280;5895;41.950;24.372;2023-01-16T13:25:58;85984.41;;;2.63;80.07
11678;BME280;5895;41.950;24.372;2023-01-16T13:28:37;85998.97;;;2.63;80.15
11678;BME280;5895;41.950;24.372;2023-01-16T13:31:14;85999.75;;;2.63;80.12
11678;BME280;5895;41.950;24.372;2023-01-16T13:33:48;85999.75;;;2.63;80.69
11678;BME280;5895;41.950;24.372;2023-01-16T13:36:41;85990.72;;;2.61;80.99
11678;BME280;5895;41.950;24.372;2023-01-16T13:39:39;85994.06;;;2.61;81.23
11678;BME280;5895;41.950;24.372;2023-01-16T13:42:12;85997.63;;;2.60;80.32
11678;BME280;5895;41.950;24.372;2023-01-16T13:44:46;85993.06;;;2.62;80.66